createdAt,value
2022-08-12T00:02:02.139Z,5.32
2022-08-12T00:04:49.653Z,3.78
2022-08-12T00:07:49.489Z,3.90
2022-08-12T00:10:55.658Z,5.13
2022-08-12T00:14:00.625Z,3.88
2022-08-12T00:17:00.925Z,6.55
2022-08-12T00:20:06.579Z,4.75
2022-08-12T00:23:07.858Z,5.90
2022-08-12T00:26:23.795Z,4.28
2022-08-12T00:29:23.865Z,4.30
2022-08-12T00:32:35.897Z,5.28
2022-08-12T00:35:36.720Z,3.10
2022-08-12T00:38:41.591Z,3.63
2022-08-12T00:41:43.446Z,3.60
2022-08-12T00:44:34.597Z,3.30
2022-08-12T00:47:24.084Z,4.72
2022-08-12T00:50:05.617Z,6.07
2022-08-12T00:52:48.011Z,4.68
2022-08-12T00:55:34.553Z,5.35
2022-08-12T00:58:26.683Z,4.80
2022-08-12T01:01:11.655Z,3.72
2022-08-12T01:04:17.583Z,4.57
2022-08-12T01:07:26.569Z,5.43
2022-08-12T01:10:33.152Z,4.15
2022-08-12T01:13:19.073Z,3.90
2022-08-12T01:16:08.577Z,4.93
2022-08-12T01:18:55.562Z,3.50
2022-08-12T01:22:24.550Z,3.78
2022-08-12T01:25:22.048Z,6.28
2022-08-12T01:28:10.542Z,4.70
2022-08-12T01:30:51.690Z,3.20
2022-08-12T01:34:36.584Z,3.75
2022-08-12T01:37:08.639Z,3.90
2022-08-12T01:40:34.913Z,3.35
2022-08-12T01:43:10.518Z,5.07
2022-08-12T01:45:59.491Z,3.60
2022-08-12T01:49:00.535Z,4.13
2022-08-12T01:52:20.361Z,3.95
2022-08-12T01:54:59.518Z,3.67
2022-08-12T01:57:58.431Z,3.85
2022-08-12T02:00:56.201Z,3.03
2022-08-12T02:04:07.548Z,4.05
2022-08-12T02:07:29.129Z,6.78
2022-08-12T02:10:50.213Z,3.42
2022-08-12T02:14:17.471Z,4.13
2022-08-12T02:17:55.901Z,4.05
2022-08-12T02:20:34.275Z,6.13
2022-08-12T02:23:29.286Z,3.20
2022-08-12T02:26:22.433Z,4.57
2022-08-12T02:29:03.892Z,5.68
2022-08-12T02:31:52.513Z,5.22
2022-08-12T02:34:34.618Z,4.28
2022-08-12T02:37:22.460Z,8.45
2022-08-12T02:40:03.883Z,3.92
2022-08-12T02:42:52.450Z,5.68
2022-08-12T02:45:56.801Z,5.22
2022-08-12T02:49:04.483Z,4.67
2022-08-12T02:51:52.445Z,5.15
2022-08-12T03:12:33.701Z,4.37
2022-08-12T03:15:24.044Z,6.18
2022-08-12T03:18:28.664Z,4.13
2022-08-12T03:23:58.574Z,4.75
2022-08-12T03:26:40.095Z,5.57
2022-08-12T03:29:29.595Z,6.47
2022-08-12T03:32:10.392Z,5.25
2022-08-12T03:35:40.373Z,6.28
2022-08-12T03:38:29.560Z,8.75
2022-08-12T03:41:36.871Z,5.65
2022-08-12T03:44:51.521Z,6.72
2022-08-12T03:48:19.233Z,7.78
2022-08-12T03:51:26.580Z,6.00
2022-08-12T03:54:32.555Z,9.05
2022-08-12T03:57:31.691Z,5.95
2022-08-12T04:00:32.742Z,7.68
2022-08-12T04:03:31.942Z,12.43
2022-08-12T04:06:18.534Z,9.00
2022-08-12T04:09:20.464Z,6.77
2022-08-12T04:12:26.158Z,8.43
2022-08-12T04:15:14.562Z,8.82
2022-08-12T04:18:06.552Z,6.03
2022-08-12T04:20:55.536Z,5.65
2022-08-12T04:23:48.384Z,6.93
2022-08-12T04:26:29.517Z,7.78
2022-08-12T04:29:17.499Z,7.88
2022-08-12T04:31:57.829Z,12.52
2022-08-12T04:34:45.527Z,6.35
2022-08-12T04:37:58.905Z,11.50
2022-08-12T04:40:38.681Z,7.47
2022-08-12T04:44:01.423Z,8.05
2022-08-12T04:46:30.569Z,9.95
2022-08-12T04:49:21.450Z,8.73
2022-08-12T04:52:10.450Z,10.90
2022-08-12T04:54:52.140Z,7.18
2022-08-12T04:57:38.490Z,10.85
2022-08-12T05:00:25.484Z,7.97
2022-08-12T05:03:05.636Z,8.60
2022-08-12T05:05:53.492Z,9.10
2022-08-12T05:08:34.556Z,6.32
2022-08-12T05:11:21.447Z,10.77
2022-08-12T05:14:12.473Z,7.68
2022-08-12T05:17:01.449Z,6.70
2022-08-12T05:19:48.452Z,8.65
2022-08-12T05:22:38.174Z,7.82
2022-08-12T05:25:26.454Z,7.95
2022-08-12T05:28:07.140Z,7.63
2022-08-12T05:30:54.462Z,8.60
2022-08-12T05:33:38.430Z,7.80
2022-08-12T05:36:27.430Z,9.73
2022-08-12T05:39:07.903Z,10.57
2022-08-12T05:41:54.426Z,9.55
2022-08-12T05:44:41.455Z,12.07
2022-08-12T05:47:52.973Z,11.65
2022-08-12T05:50:35.428Z,8.32
2022-08-12T05:53:22.422Z,13.88
2022-08-12T05:56:03.012Z,12.32
2022-08-12T05:58:49.409Z,7.97
2022-08-12T06:02:12.642Z,9.57
2022-08-12T06:04:37.416Z,8.18
2022-08-12T06:07:37.356Z,11.00
2022-08-12T06:10:39.401Z,10.70
2022-08-12T06:13:52.609Z,12.57
2022-08-12T06:16:28.762Z,12.70
2022-08-12T06:19:16.421Z,8.93
2022-08-12T06:21:56.634Z,11.00
2022-08-12T06:24:43.419Z,10.85
2022-08-12T06:27:23.489Z,8.98
2022-08-12T06:30:14.369Z,10.98
2022-08-12T06:33:21.507Z,10.65
2022-08-12T06:36:04.854Z,8.70
2022-08-12T06:38:51.392Z,12.85
2022-08-12T06:42:25.301Z,9.35
2022-08-12T06:44:57.395Z,13.50
2022-08-12T06:47:37.932Z,10.40
2022-08-12T06:50:24.389Z,12.10
2022-08-12T06:53:05.620Z,11.25
2022-08-12T06:55:57.758Z,9.70
2022-08-12T06:58:46.342Z,10.38
2022-08-12T07:01:34.337Z,10.95
2022-08-12T07:04:39.069Z,10.60
2022-08-12T07:07:19.441Z,12.50
2022-08-12T07:10:08.438Z,12.75
2022-08-12T07:12:55.502Z,11.07
2022-08-12T07:15:37.336Z,9.30
2022-08-12T07:18:26.342Z,10.98
2022-08-12T07:21:15.350Z,17.45
2022-08-12T07:24:09.333Z,15.55
2022-08-12T07:30:02.720Z,9.27
2022-08-12T07:32:44.317Z,10.63
2022-08-12T07:35:24.397Z,9.80
2022-08-12T07:38:32.407Z,10.23
2022-08-12T07:41:26.480Z,9.68
2022-08-12T07:44:15.305Z,9.40
2022-08-12T07:46:55.396Z,11.43
2022-08-12T07:50:03.438Z,10.73
2022-08-12T07:52:45.320Z,9.25
2022-08-12T07:55:25.553Z,11.35
2022-08-12T07:58:12.273Z,9.50
2022-08-12T08:01:01.282Z,10.27
2022-08-12T08:04:09.243Z,11.88
2022-08-12T08:06:51.305Z,16.95
2022-08-12T08:09:31.937Z,12.98
2022-08-12T08:12:36.304Z,10.65
2022-08-12T08:15:38.643Z,9.57
2022-08-12T08:18:26.837Z,10.30
2022-08-12T08:21:15.280Z,12.65
2022-08-12T08:24:13.894Z,8.63
2022-08-12T08:27:05.254Z,11.32
2022-08-12T08:29:45.579Z,16.08
2022-08-12T08:32:32.269Z,11.18
2022-08-12T08:35:14.718Z,10.40
2022-08-12T08:38:33.304Z,11.88
2022-08-12T08:42:17.697Z,13.00
2022-08-12T08:44:54.093Z,9.43
2022-08-12T08:48:00.128Z,10.82
2022-08-12T08:50:40.427Z,10.07
2022-08-12T08:53:27.258Z,29.45
2022-08-12T08:56:17.233Z,11.50
2022-08-12T08:59:04.747Z,10.85
2022-08-12T09:01:52.338Z,11.23
2022-08-12T09:05:12.658Z,11.10
2022-08-12T09:07:51.134Z,10.45
2022-08-12T09:10:45.436Z,13.77
2022-08-12T09:16:42.674Z,13.18
2022-08-12T09:19:33.454Z,12.05
2022-08-12T09:22:18.597Z,11.88
2022-08-12T09:25:07.433Z,10.32
2022-08-12T09:28:03.682Z,15.57
2022-08-12T09:31:04.196Z,12.63
2022-08-12T09:34:29.259Z,9.52
2022-08-12T09:37:19.327Z,11.75
2022-08-12T09:41:02.067Z,10.65
2022-08-12T09:43:26.582Z,10.80
2022-08-12T09:46:22.170Z,10.95
2022-08-12T09:49:16.497Z,12.00
2022-08-12T09:51:57.244Z,11.80
2022-08-12T09:54:44.214Z,10.45
2022-08-12T09:58:46.719Z,9.93
2022-08-12T10:00:52.176Z,11.82
2022-08-12T10:03:34.708Z,12.60
2022-08-12T10:06:54.289Z,10.63
2022-08-12T10:09:57.130Z,12.55
2022-08-12T10:13:07.775Z,10.77
2022-08-12T10:16:01.622Z,11.48
2022-08-12T10:18:56.199Z,13.05
2022-08-12T10:21:45.170Z,10.18
2022-08-12T10:24:32.140Z,9.95
2022-08-12T10:28:04.261Z,11.10
2022-08-12T10:30:44.181Z,10.15
2022-08-12T10:33:54.848Z,12.30
2022-08-12T10:36:40.595Z,11.50
2022-08-12T10:40:01.501Z,10.20
2022-08-12T10:43:04.135Z,10.93
2022-08-12T10:45:46.042Z,14.43
2022-08-12T10:48:33.930Z,11.32
2022-08-12T10:52:02.982Z,10.35
2022-08-12T10:54:29.149Z,9.65
2022-08-12T10:57:18.238Z,13.52
2022-08-12T11:00:34.470Z,11.30
2022-08-12T11:04:27.680Z,15.30
2022-08-12T11:07:09.658Z,11.23
2022-08-12T11:09:55.547Z,13.05
2022-08-12T11:12:59.950Z,11.35
2022-08-12T11:16:02.592Z,10.88
2022-08-12T11:18:48.130Z,12.10
2022-08-12T11:24:42.107Z,13.80
2022-08-12T11:27:38.224Z,12.90
2022-08-12T11:30:31.046Z,11.70
2022-08-12T11:36:22.110Z,14.63
2022-08-12T11:39:05.136Z,11.88
2022-08-12T11:41:52.056Z,11.80
2022-08-12T11:44:43.117Z,14.27
2022-08-12T11:47:23.012Z,11.18
2022-08-12T11:50:11.696Z,12.48
2022-08-12T11:52:56.538Z,13.23
2022-08-12T11:55:46.732Z,10.88
2022-08-12T11:59:02.765Z,13.93
2022-08-12T12:02:04.784Z,13.20
2022-08-12T12:04:34.326Z,11.80
2022-08-12T12:07:21.062Z,11.30
2022-08-12T12:10:01.487Z,10.93
2022-08-12T12:12:50.754Z,11.88
2022-08-12T12:15:40.632Z,11.35
2022-08-12T12:18:34.050Z,12.90
2022-08-12T12:21:47.323Z,14.93
2022-08-12T12:24:25.023Z,17.08
2022-08-12T12:27:18.178Z,12.75
2022-08-12T12:30:19.470Z,12.77
2022-08-12T12:33:06.033Z,11.52
2022-08-12T12:36:18.581Z,12.98
2022-08-12T12:38:54.496Z,13.25
2022-08-12T12:42:43.904Z,13.95
2022-08-12T12:44:51.048Z,13.30
2022-08-12T12:47:34.228Z,11.65
2022-08-12T12:50:35.720Z,13.88
2022-08-12T12:54:06.598Z,15.77
2022-08-12T12:56:34.459Z,11.95
2022-08-12T12:59:54.996Z,15.70
2022-08-12T13:02:42.248Z,13.23
2022-08-12T13:05:45.982Z,14.52
2022-08-12T13:08:36.187Z,13.80
2022-08-12T13:11:22.980Z,17.58
2022-08-12T13:14:29.036Z,12.95
2022-08-12T13:17:19.840Z,14.13
2022-08-12T13:20:01.291Z,12.80
2022-08-12T13:22:48.015Z,13.30
2022-08-12T13:25:28.273Z,13.48
2022-08-12T13:28:30.008Z,15.10
2022-08-12T13:31:11.285Z,11.25
2022-08-12T13:34:34.279Z,13.30
2022-08-12T13:37:00.176Z,13.18
2022-08-12T13:39:47.017Z,14.23
2022-08-12T13:42:30.064Z,13.30
2022-08-12T13:45:17.011Z,13.45
2022-08-12T13:48:15.950Z,16.48
2022-08-12T13:51:00.344Z,15.13
2022-08-12T13:56:49.902Z,14.82
2022-08-12T13:59:30.057Z,16.45
2022-08-12T14:02:34.967Z,16.10
2022-08-12T14:05:37.950Z,13.88
2022-08-12T14:08:22.961Z,15.65
2022-08-12T14:11:05.102Z,13.95
2022-08-12T14:14:04.888Z,15.93
2022-08-12T14:16:58.943Z,14.40
2022-08-12T14:20:05.952Z,15.07
2022-08-12T14:22:59.966Z,13.63
2022-08-12T14:26:01.925Z,16.38
2022-08-12T14:28:57.896Z,15.05
2022-08-12T14:31:43.028Z,12.38
2022-08-12T14:34:29.893Z,16.05
2022-08-12T14:37:56.817Z,16.02
2022-08-12T14:40:27.777Z,12.30
2022-08-12T14:43:14.897Z,12.50
2022-08-12T14:46:05.900Z,12.82
2022-08-12T14:48:51.462Z,13.02
2022-08-12T14:56:59.885Z,15.38
2022-08-12T15:15:06.581Z,12.80
2022-08-12T15:17:46.468Z,14.02
2022-08-12T15:20:39.110Z,11.73
2022-08-12T15:23:22.693Z,12.93
2022-08-12T15:29:01.397Z,13.10
2022-08-12T15:32:00.088Z,14.57
2022-08-12T15:34:49.862Z,16.38
2022-08-12T15:38:08.156Z,11.60
2022-08-12T15:40:48.249Z,13.27
2022-08-12T15:44:16.878Z,13.73
2022-08-12T15:46:37.435Z,14.07
2022-08-12T15:49:24.985Z,12.48
2022-08-12T15:52:05.531Z,12.35
2022-08-12T15:54:51.979Z,14.43
2022-08-12T15:57:38.978Z,11.73
2022-08-12T16:00:31.896Z,12.57
2022-08-12T16:03:25.486Z,16.02
2022-08-12T16:06:12.622Z,13.90
2022-08-12T16:09:03.954Z,11.52
2022-08-12T16:11:52.974Z,15.48
2022-08-12T16:14:39.971Z,14.27
2022-08-12T16:17:20.470Z,14.65
2022-08-12T16:20:33.471Z,13.57
2022-08-12T16:23:35.975Z,14.32
2022-08-12T16:26:27.291Z,13.70
2022-08-12T16:29:15.382Z,18.88
2022-08-12T16:34:54.665Z,12.85
2022-08-12T16:38:24.162Z,14.65
2022-08-12T16:40:46.287Z,12.98
2022-08-12T16:43:35.952Z,14.93
2022-08-12T16:46:32.805Z,12.50
2022-08-12T16:49:20.908Z,14.25
2022-08-12T16:52:05.917Z,12.90
2022-08-12T16:54:59.941Z,14.02
2022-08-12T16:57:54.243Z,15.88
2022-08-12T17:00:40.974Z,16.63
2022-08-12T17:03:36.667Z,12.65
2022-08-12T17:06:19.491Z,13.15
2022-08-12T17:09:17.022Z,22.63
2022-08-12T17:11:57.260Z,21.15
2022-08-12T17:14:44.903Z,44.17
2022-08-12T17:17:39.439Z,25.75
2022-08-12T17:20:35.543Z,27.08
2022-08-12T17:23:21.380Z,19.55
2022-08-12T17:26:07.860Z,18.42
2022-08-12T17:28:55.881Z,13.13
2022-08-12T17:32:00.331Z,12.60
2022-08-12T17:34:55.883Z,13.73
2022-08-12T17:37:37.509Z,17.75
2022-08-12T17:40:35.826Z,14.25
2022-08-12T17:43:54.647Z,15.45
2022-08-12T17:46:33.348Z,13.02
2022-08-12T17:50:01.485Z,13.68
2022-08-12T17:52:14.910Z,14.38
2022-08-12T17:55:04.892Z,13.25
2022-08-12T17:58:06.530Z,12.52
2022-08-12T18:00:59.894Z,10.98
2022-08-12T18:03:57.678Z,14.93
2022-08-12T18:06:50.338Z,14.50
2022-08-12T18:12:38.507Z,19.58
2022-08-12T18:16:05.697Z,15.80
2022-08-12T18:18:34.852Z,15.73
2022-08-12T18:21:21.854Z,17.02
2022-08-12T18:24:21.684Z,16.05
2022-08-12T18:27:27.971Z,15.73
2022-08-12T18:30:07.812Z,17.90
2022-08-12T18:32:59.485Z,20.88
2022-08-12T18:35:47.402Z,18.52
2022-08-12T18:38:39.811Z,17.45
2022-08-12T18:41:35.846Z,17.40
2022-08-12T18:44:17.896Z,16.85
2022-08-12T18:47:09.137Z,17.10
2022-08-12T18:49:49.749Z,17.35
2022-08-12T18:52:41.043Z,16.88
2022-08-12T18:55:27.753Z,19.27
2022-08-12T18:58:20.516Z,22.02
2022-08-12T19:01:08.702Z,18.67
2022-08-12T19:04:08.981Z,18.33
2022-08-12T19:06:55.802Z,20.48
2022-08-12T19:09:58.293Z,19.33
2022-08-12T19:12:58.269Z,19.38
2022-08-12T19:15:51.788Z,18.75
2022-08-12T19:18:40.420Z,20.63
2022-08-12T19:21:27.763Z,21.75
2022-08-12T19:24:26.497Z,22.48
2022-08-12T19:27:15.402Z,16.85
2022-08-12T19:30:06.142Z,21.27
2022-08-12T19:32:54.755Z,18.63
2022-08-12T19:36:06.612Z,20.70
2022-08-12T19:38:46.846Z,20.08
2022-08-12T19:42:00.910Z,21.58
2022-08-12T19:44:49.771Z,20.65
2022-08-12T19:47:38.850Z,21.80
2022-08-12T19:50:25.762Z,20.80
2022-08-12T19:53:07.941Z,21.27
2022-08-12T19:55:58.726Z,20.73
2022-08-12T19:58:38.869Z,21.05
2022-08-12T20:01:25.728Z,20.58
2022-08-12T20:04:20.750Z,19.08
2022-08-12T20:07:01.437Z,23.38
2022-08-12T20:09:53.718Z,20.70
2022-08-12T20:13:10.160Z,24.02
2022-08-12T20:15:51.143Z,20.45
2022-08-12T20:18:44.472Z,17.17
2022-08-12T20:21:41.018Z,18.77
2022-08-12T20:24:31.226Z,18.60
2022-08-12T20:27:29.256Z,17.48
2022-08-12T20:30:38.173Z,17.95
2022-08-12T20:33:56.401Z,18.92
2022-08-12T20:36:41.207Z,18.88
2022-08-12T20:39:52.023Z,18.30
2022-08-12T20:42:31.310Z,14.35
2022-08-12T20:45:13.715Z,16.70
2022-08-12T20:48:04.381Z,16.13
2022-08-12T20:50:47.613Z,17.52
2022-08-12T20:53:58.537Z,17.27
2022-08-12T20:56:45.951Z,16.08
2022-08-12T20:59:25.633Z,16.38
2022-08-12T21:02:24.172Z,14.85
2022-08-12T21:06:09.437Z,19.30
2022-08-12T21:08:35.657Z,20.50
2022-08-12T21:11:29.687Z,19.10
2022-08-12T21:14:39.859Z,18.38
2022-08-12T21:18:00.274Z,17.92
2022-08-12T21:20:31.650Z,18.10
2022-08-12T21:23:20.638Z,20.85
2022-08-12T21:26:01.569Z,16.67
2022-08-12T21:28:58.206Z,17.17
2022-08-12T21:32:36.603Z,16.65
2022-08-12T21:34:54.646Z,17.08
2022-08-12T21:37:37.476Z,20.73
2022-08-12T21:40:37.165Z,16.80
2022-08-12T21:43:39.017Z,16.40
2022-08-12T21:46:35.389Z,22.25
2022-08-12T21:49:53.993Z,23.80
2022-08-12T21:52:28.332Z,18.63
2022-08-12T21:55:23.657Z,25.75
2022-08-12T21:58:18.594Z,29.77
2022-08-12T22:01:05.651Z,23.30
2022-08-12T22:04:16.599Z,30.73
2022-08-12T22:06:59.263Z,32.58
2022-08-12T22:09:46.593Z,37.53
2022-08-12T22:12:39.775Z,24.90
2022-08-12T22:15:33.605Z,36.45
2022-08-12T22:18:14.001Z,27.58
2022-08-12T22:21:03.617Z,28.05
2022-08-12T22:24:05.050Z,21.42
2022-08-12T22:26:52.609Z,34.53
2022-08-12T22:29:58.569Z,38.55
2022-08-12T22:32:56.554Z,25.85
2022-08-12T22:35:55.660Z,24.23
2022-08-12T22:38:40.741Z,16.60
2022-08-12T22:41:47.571Z,18.58
2022-08-12T22:44:55.430Z,21.60
2022-08-12T22:47:55.731Z,17.48
2022-08-12T22:50:36.698Z,39.88
2022-08-12T22:53:25.561Z,23.67
2022-08-12T22:56:22.537Z,20.33
2022-08-12T22:59:17.559Z,17.60
2022-08-12T23:02:02.799Z,17.52
2022-08-12T23:04:49.547Z,15.95
2022-08-12T23:07:58.780Z,43.20
2022-08-12T23:10:37.161Z,19.10
2022-08-12T23:13:43.626Z,17.85
2022-08-12T23:16:41.513Z,16.35
2022-08-12T23:19:38.550Z,15.00
2022-08-12T23:22:36.750Z,21.67
2022-08-12T23:25:55.568Z,16.15
2022-08-12T23:28:53.379Z,19.00
2022-08-12T23:32:02.669Z,17.05
2022-08-12T23:34:47.895Z,14.18
2022-08-12T23:37:47.252Z,13.00
2022-08-12T23:40:38.556Z,13.40
2022-08-12T23:43:19.912Z,12.65
2022-08-12T23:46:11.570Z,16.55
2022-08-12T23:48:54.113Z,13.05
2022-08-12T23:51:43.508Z,13.13
2022-08-12T23:54:44.099Z,13.40
2022-08-12T23:57:26.637Z,11.90
